sensor_id;sensor_type;location;lat;lon;timestamp;P1;durP1;ratioP1;P2;durP2;ratioP2
66870;SDS011;53780;44.998;9.926;2023-10-08T00:00:14;48.23;;;24.00;;
66870;SDS011;53780;44.998;9.926;2023-10-08T00:03:37;47.58;;;23.23;;
66870;SDS011;53780;44.998;9.926;2023-10-08T00:06:41;46.17;;;23.60;;
66870;SDS011;53780;44.998;9.926;2023-10-08T00:09:45;43.00;;;21.83;;
66870;SDS011;53780;44.998;9.926;2023-10-08T00:12:49;44.63;;;21.70;;
66870;SDS011;53780;44.998;9.926;2023-10-08T00:15:54;41.50;;;21.20;;
66870;SDS011;53780;44.998;9.926;2023-10-08T00:18:57;44.05;;;21.98;;
66870;SDS011;53780;44.998;9.926;2023-10-08T00:22:06;43.67;;;22.15;;
66870;SDS011;53780;44.998;9.926;2023-10-08T00:25:11;43.72;;;22.52;;
66870;SDS011;53780;44.998;9.926;2023-10-08T00:28:15;45.13;;;22.67;;
66870;SDS011;53780;44.998;9.926;2023-10-08T00:31:20;44.57;;;22.27;;
66870;SDS011;53780;44.998;9.926;2023-10-08T00:34:27;45.92;;;22.38;;
66870;SDS011;53780;44.998;9.926;2023-10-08T00:37:32;39.97;;;20.95;;
66870;SDS011;53780;44.998;9.926;2023-10-08T00:40:37;41.75;;;19.95;;
66870;SDS011;53780;44.998;9.926;2023-10-08T00:43:43;39.63;;;20.98;;
66870;SDS011;53780;44.998;9.926;2023-10-08T00:46:52;40.30;;;20.27;;
66870;SDS011;53780;44.998;9.926;2023-10-08T00:49:56;37.92;;;20.42;;
66870;SDS011;53780;44.998;9.926;2023-10-08T00:53:10;36.75;;;19.35;;
66870;SDS011;53780;44.998;9.926;2023-10-08T00:56:27;37.80;;;19.92;;
66870;SDS011;53780;44.998;9.926;2023-10-08T00:59:52;34.75;;;19.58;;
66870;SDS011;53780;44.998;9.926;2023-10-08T01:02:57;37.87;;;19.43;;
66870;SDS011;53780;44.998;9.926;2023-10-08T01:06:05;37.15;;;19.25;;
66870;SDS011;53780;44.998;9.926;2023-10-08T01:09:13;36.42;;;19.77;;
66870;SDS011;53780;44.998;9.926;2023-10-08T01:12:25;34.42;;;18.45;;
66870;SDS011;53780;44.998;9.926;2023-10-08T01:15:30;36.63;;;19.10;;
66870;SDS011;53780;44.998;9.926;2023-10-08T01:18:34;36.00;;;18.87;;
66870;SDS011;53780;44.998;9.926;2023-10-08T01:21:38;34.70;;;19.45;;
66870;SDS011;53780;44.998;9.926;2023-10-08T01:24:45;36.45;;;19.73;;
66870;SDS011;53780;44.998;9.926;2023-10-08T01:27:55;36.95;;;20.45;;
66870;SDS011;53780;44.998;9.926;2023-10-08T01:31:04;38.10;;;20.50;;
66870;SDS011;53780;44.998;9.926;2023-10-08T01:34:10;40.80;;;20.90;;
66870;SDS011;53780;44.998;9.926;2023-10-08T01:37:19;43.60;;;21.50;;
66870;SDS011;53780;44.998;9.926;2023-10-08T01:40:23;43.85;;;21.98;;
66870;SDS011;53780;44.998;9.926;2023-10-08T01:43:26;43.92;;;21.50;;
66870;SDS011;53780;44.998;9.926;2023-10-08T01:46:31;42.33;;;21.08;;
66870;SDS011;53780;44.998;9.926;2023-10-08T01:49:36;42.27;;;21.80;;
66870;SDS011;53780;44.998;9.926;2023-10-08T01:52:42;38.17;;;20.48;;
66870;SDS011;53780;44.998;9.926;2023-10-08T01:55:49;40.00;;;21.33;;
66870;SDS011;53780;44.998;9.926;2023-10-08T01:58:55;36.97;;;19.67;;
66870;SDS011;53780;44.998;9.926;2023-10-08T02:01:59;40.15;;;20.23;;
66870;SDS011;53780;44.998;9.926;2023-10-08T02:05:03;33.83;;;18.07;;
66870;SDS011;53780;44.998;9.926;2023-10-08T02:08:08;38.30;;;19.73;;
66870;SDS011;53780;44.998;9.926;2023-10-08T02:11:13;40.90;;;19.70;;
66870;SDS011;53780;44.998;9.926;2023-10-08T02:14:19;40.13;;;19.60;;
66870;SDS011;53780;44.998;9.926;2023-10-08T02:17:24;41.28;;;20.38;;
66870;SDS011;53780;44.998;9.926;2023-10-08T02:20:27;41.80;;;21.43;;
66870;SDS011;53780;44.998;9.926;2023-10-08T02:23:31;44.60;;;22.30;;
66870;SDS011;53780;44.998;9.926;2023-10-08T02:26:35;43.42;;;22.70;;
66870;SDS011;53780;44.998;9.926;2023-10-08T02:29:39;48.75;;;24.27;;
66870;SDS011;53780;44.998;9.926;2023-10-08T02:32:43;52.90;;;25.42;;
66870;SDS011;53780;44.998;9.926;2023-10-08T02:35:47;53.90;;;26.13;;
66870;SDS011;53780;44.998;9.926;2023-10-08T02:38:52;56.42;;;26.98;;
66870;SDS011;53780;44.998;9.926;2023-10-08T02:41:58;62.50;;;29.15;;
66870;SDS011;53780;44.998;9.926;2023-10-08T02:45:03;69.07;;;31.17;;
66870;SDS011;53780;44.998;9.926;2023-10-08T02:48:07;63.17;;;29.42;;
66870;SDS011;53780;44.998;9.926;2023-10-08T02:51:16;74.13;;;31.90;;
66870;SDS011;53780;44.998;9.926;2023-10-08T02:54:20;70.82;;;31.45;;
66870;SDS011;53780;44.998;9.926;2023-10-08T02:57:27;68.85;;;31.38;;
66870;SDS011;53780;44.998;9.926;2023-10-08T03:00:33;77.28;;;32.03;;
66870;SDS011;53780;44.998;9.926;2023-10-08T03:03:41;70.55;;;32.08;;
66870;SDS011;53780;44.998;9.926;2023-10-08T03:06:46;68.87;;;30.73;;
66870;SDS011;53780;44.998;9.926;2023-10-08T03:09:59;70.50;;;31.77;;
66870;SDS011;53780;44.998;9.926;2023-10-08T03:13:09;64.78;;;30.10;;
66870;SDS011;53780;44.998;9.926;2023-10-08T03:16:16;63.75;;;30.02;;
66870;SDS011;53780;44.998;9.926;2023-10-08T03:19:25;63.83;;;29.95;;
66870;SDS011;53780;44.998;9.926;2023-10-08T03:22:29;63.57;;;28.37;;
66870;SDS011;53780;44.998;9.926;2023-10-08T03:25:37;63.92;;;29.50;;
66870;SDS011;53780;44.998;9.926;2023-10-08T03:28:44;65.90;;;28.95;;
66870;SDS011;53780;44.998;9.926;2023-10-08T03:31:48;62.05;;;28.20;;
66870;SDS011;53780;44.998;9.926;2023-10-08T03:34:55;63.00;;;29.63;;
66870;SDS011;53780;44.998;9.926;2023-10-08T03:37:59;67.20;;;30.70;;
66870;SDS011;53780;44.998;9.926;2023-10-08T03:41:22;61.60;;;28.23;;
66870;SDS011;53780;44.998;9.926;2023-10-08T03:44:33;59.20;;;28.08;;
66870;SDS011;53780;44.998;9.926;2023-10-08T03:47:41;68.05;;;31.25;;
66870;SDS011;53780;44.998;9.926;2023-10-08T03:50:50;65.38;;;28.75;;
66870;SDS011;53780;44.998;9.926;2023-10-08T03:54:09;62.07;;;28.83;;
66870;SDS011;53780;44.998;9.926;2023-10-08T03:57:14;58.92;;;27.90;;
66870;SDS011;53780;44.998;9.926;2023-10-08T04:00:28;65.30;;;27.85;;
66870;SDS011;53780;44.998;9.926;2023-10-08T04:03:44;56.58;;;27.40;;
66870;SDS011;53780;44.998;9.926;2023-10-08T04:06:55;55.92;;;26.83;;
66870;SDS011;53780;44.998;9.926;2023-10-08T04:10:06;56.70;;;26.43;;
66870;SDS011;53780;44.998;9.926;2023-10-08T04:13:13;58.13;;;27.67;;
66870;SDS011;53780;44.998;9.926;2023-10-08T04:16:19;53.17;;;25.38;;
66870;SDS011;53780;44.998;9.926;2023-10-08T04:19:23;53.42;;;25.45;;
66870;SDS011;53780;44.998;9.926;2023-10-08T04:22:30;52.58;;;25.65;;
66870;SDS011;53780;44.998;9.926;2023-10-08T04:25:33;50.00;;;25.70;;
66870;SDS011;53780;44.998;9.926;2023-10-08T04:28:38;53.67;;;24.83;;
66870;SDS011;53780;44.998;9.926;2023-10-08T04:31:44;51.38;;;24.88;;
66870;SDS011;53780;44.998;9.926;2023-10-08T04:34:50;50.78;;;24.38;;
66870;SDS011;53780;44.998;9.926;2023-10-08T04:37:56;47.85;;;23.50;;
66870;SDS011;53780;44.998;9.926;2023-10-08T04:40:59;48.50;;;24.10;;
66870;SDS011;53780;44.998;9.926;2023-10-08T04:44:06;46.03;;;22.98;;
66870;SDS011;53780;44.998;9.926;2023-10-08T04:47:17;45.25;;;22.13;;
66870;SDS011;53780;44.998;9.926;2023-10-08T04:50:36;45.22;;;22.55;;
66870;SDS011;53780;44.998;9.926;2023-10-08T04:53:40;44.67;;;23.40;;
66870;SDS011;53780;44.998;9.926;2023-10-08T04:56:47;45.97;;;22.93;;
66870;SDS011;53780;44.998;9.926;2023-10-08T04:59:52;49.45;;;22.90;;
66870;SDS011;53780;44.998;9.926;2023-10-08T05:03:00;49.03;;;23.00;;
66870;SDS011;53780;44.998;9.926;2023-10-08T05:06:14;45.50;;;22.80;;
66870;SDS011;53780;44.998;9.926;2023-10-08T05:09:30;44.00;;;22.17;;
66870;SDS011;53780;44.998;9.926;2023-10-08T05:13:04;40.57;;;20.90;;
66870;SDS011;53780;44.998;9.926;2023-10-08T05:16:10;50.10;;;22.83;;
66870;SDS011;53780;44.998;9.926;2023-10-08T05:19:37;44.53;;;21.63;;
66870;SDS011;53780;44.998;9.926;2023-10-08T05:23:09;42.75;;;20.25;;
66870;SDS011;53780;44.998;9.926;2023-10-08T05:26:28;37.72;;;19.60;;
66870;SDS011;53780;44.998;9.926;2023-10-08T05:29:45;41.53;;;19.60;;
66870;SDS011;53780;44.998;9.926;2023-10-08T05:33:08;39.03;;;19.17;;
66870;SDS011;53780;44.998;9.926;2023-10-08T05:36:27;37.97;;;19.00;;
66870;SDS011;53780;44.998;9.926;2023-10-08T05:39:39;37.78;;;19.38;;
66870;SDS011;53780;44.998;9.926;2023-10-08T05:42:43;40.55;;;19.45;;
66870;SDS011;53780;44.998;9.926;2023-10-08T05:45:50;37.87;;;19.30;;
66870;SDS011;53780;44.998;9.926;2023-10-08T05:49:16;39.28;;;19.42;;
66870;SDS011;53780;44.998;9.926;2023-10-08T05:52:42;46.38;;;22.48;;
66870;SDS011;53780;44.998;9.926;2023-10-08T05:56:05;55.17;;;26.42;;
66870;SDS011;53780;44.998;9.926;2023-10-08T05:59:28;60.60;;;27.35;;
66870;SDS011;53780;44.998;9.926;2023-10-08T06:02:42;57.77;;;26.37;;
66870;SDS011;53780;44.998;9.926;2023-10-08T06:05:49;56.15;;;26.90;;
66870;SDS011;53780;44.998;9.926;2023-10-08T06:09:10;57.65;;;27.48;;
66870;SDS011;53780;44.998;9.926;2023-10-08T06:12:14;62.97;;;27.40;;
66870;SDS011;53780;44.998;9.926;2023-10-08T06:15:35;62.85;;;28.48;;
66870;SDS011;53780;44.998;9.926;2023-10-08T06:18:48;60.50;;;27.53;;
66870;SDS011;53780;44.998;9.926;2023-10-08T06:21:52;60.45;;;28.45;;
66870;SDS011;53780;44.998;9.926;2023-10-08T06:24:56;59.65;;;27.67;;
66870;SDS011;53780;44.998;9.926;2023-10-08T06:28:20;55.28;;;26.35;;
66870;SDS011;53780;44.998;9.926;2023-10-08T06:31:23;52.47;;;25.48;;
66870;SDS011;53780;44.998;9.926;2023-10-08T06:34:29;50.87;;;25.00;;
66870;SDS011;53780;44.998;9.926;2023-10-08T06:37:34;52.20;;;25.35;;
66870;SDS011;53780;44.998;9.926;2023-10-08T06:40:38;56.38;;;26.38;;
66870;SDS011;53780;44.998;9.926;2023-10-08T06:43:42;55.72;;;25.38;;
66870;SDS011;53780;44.998;9.926;2023-10-08T06:46:51;54.95;;;26.67;;
66870;SDS011;53780;44.998;9.926;2023-10-08T06:49:59;52.60;;;26.80;;
66870;SDS011;53780;44.998;9.926;2023-10-08T06:53:03;52.33;;;25.85;;
66870;SDS011;53780;44.998;9.926;2023-10-08T06:56:11;52.50;;;24.88;;
66870;SDS011;53780;44.998;9.926;2023-10-08T06:59:17;45.75;;;23.52;;
66870;SDS011;53780;44.998;9.926;2023-10-08T07:02:26;46.65;;;23.40;;
66870;SDS011;53780;44.998;9.926;2023-10-08T07:05:52;40.10;;;20.33;;
66870;SDS011;53780;44.998;9.926;2023-10-08T07:09:05;38.92;;;20.83;;
66870;SDS011;53780;44.998;9.926;2023-10-08T07:12:17;41.65;;;21.58;;
66870;SDS011;53780;44.998;9.926;2023-10-08T07:15:22;36.67;;;20.80;;
66870;SDS011;53780;44.998;9.926;2023-10-08T07:18:29;41.60;;;21.80;;
66870;SDS011;53780;44.998;9.926;2023-10-08T07:21:35;45.67;;;22.77;;
66870;SDS011;53780;44.998;9.926;2023-10-08T07:24:48;50.40;;;26.05;;
66870;SDS011;53780;44.998;9.926;2023-10-08T07:27:54;42.47;;;23.27;;
66870;SDS011;53780;44.998;9.926;2023-10-08T07:30:58;40.83;;;22.40;;
66870;SDS011;53780;44.998;9.926;2023-10-08T07:34:02;42.53;;;23.35;;
66870;SDS011;53780;44.998;9.926;2023-10-08T07:37:19;51.57;;;27.83;;
66870;SDS011;53780;44.998;9.926;2023-10-08T07:40:26;45.40;;;25.10;;
66870;SDS011;53780;44.998;9.926;2023-10-08T07:43:32;47.67;;;23.45;;
66870;SDS011;53780;44.998;9.926;2023-10-08T07:46:36;46.08;;;24.35;;
66870;SDS011;53780;44.998;9.926;2023-10-08T07:49:40;41.92;;;22.75;;
66870;SDS011;53780;44.998;9.926;2023-10-08T07:52:46;36.97;;;21.37;;
66870;SDS011;53780;44.998;9.926;2023-10-08T07:55:51;40.78;;;20.67;;
66870;SDS011;53780;44.998;9.926;2023-10-08T07:58:56;35.75;;;20.67;;
66870;SDS011;53780;44.998;9.926;2023-10-08T08:02:00;35.97;;;20.75;;
66870;SDS011;53780;44.998;9.926;2023-10-08T08:05:03;45.67;;;20.35;;
66870;SDS011;53780;44.998;9.926;2023-10-08T08:08:08;44.43;;;22.83;;
66870;SDS011;53780;44.998;9.926;2023-10-08T08:11:11;41.15;;;19.50;;
66870;SDS011;53780;44.998;9.926;2023-10-08T08:14:15;36.05;;;20.73;;
66870;SDS011;53780;44.998;9.926;2023-10-08T08:17:23;35.42;;;20.17;;
66870;SDS011;53780;44.998;9.926;2023-10-08T08:20:27;38.17;;;20.05;;
66870;SDS011;53780;44.998;9.926;2023-10-08T08:23:38;37.93;;;19.60;;
66870;SDS011;53780;44.998;9.926;2023-10-08T08:26:42;32.88;;;19.98;;
66870;SDS011;53780;44.998;9.926;2023-10-08T08:30:05;34.97;;;19.27;;
66870;SDS011;53780;44.998;9.926;2023-10-08T08:33:19;35.72;;;19.83;;
66870;SDS011;53780;44.998;9.926;2023-10-08T08:36:26;35.22;;;19.38;;
66870;SDS011;53780;44.998;9.926;2023-10-08T08:39:31;29.40;;;17.90;;
66870;SDS011;53780;44.998;9.926;2023-10-08T08:42:39;32.42;;;18.92;;
66870;SDS011;53780;44.998;9.926;2023-10-08T08:45:44;37.42;;;19.20;;
66870;SDS011;53780;44.998;9.926;2023-10-08T08:48:53;30.40;;;19.17;;
66870;SDS011;53780;44.998;9.926;2023-10-08T08:51:58;32.95;;;19.13;;
66870;SDS011;53780;44.998;9.926;2023-10-08T08:55:04;34.40;;;18.70;;
66870;SDS011;53780;44.998;9.926;2023-10-08T08:58:16;33.58;;;18.48;;
66870;SDS011;53780;44.998;9.926;2023-10-08T09:01:21;31.42;;;18.77;;
66870;SDS011;53780;44.998;9.926;2023-10-08T09:04:29;30.40;;;17.88;;
66870;SDS011;53780;44.998;9.926;2023-10-08T09:07:34;31.48;;;18.35;;
66870;SDS011;53780;44.998;9.926;2023-10-08T09:10:38;30.73;;;18.60;;
66870;SDS011;53780;44.998;9.926;2023-10-08T09:13:54;28.02;;;17.65;;
66870;SDS011;53780;44.998;9.926;2023-10-08T09:16:59;34.85;;;18.77;;
66870;SDS011;53780;44.998;9.926;2023-10-08T09:20:04;29.95;;;17.42;;
66870;SDS011;53780;44.998;9.926;2023-10-08T09:23:11;27.88;;;17.33;;
66870;SDS011;53780;44.998;9.926;2023-10-08T09:26:22;27.67;;;16.90;;
66870;SDS011;53780;44.998;9.926;2023-10-08T09:29:26;28.92;;;17.48;;
66870;SDS011;53780;44.998;9.926;2023-10-08T09:32:30;31.85;;;19.00;;
66870;SDS011;53780;44.998;9.926;2023-10-08T09:35:34;26.35;;;15.80;;
66870;SDS011;53780;44.998;9.926;2023-10-08T09:38:37;28.08;;;16.70;;
66870;SDS011;53780;44.998;9.926;2023-10-08T09:41:41;26.23;;;15.47;;
66870;SDS011;53780;44.998;9.926;2023-10-08T09:44:46;23.50;;;15.75;;
66870;SDS011;53780;44.998;9.926;2023-10-08T09:47:54;26.30;;;15.82;;
66870;SDS011;53780;44.998;9.926;2023-10-08T09:50:58;23.90;;;13.90;;
66870;SDS011;53780;44.998;9.926;2023-10-08T09:54:11;24.25;;;14.63;;
66870;SDS011;53780;44.998;9.926;2023-10-08T09:57:19;21.03;;;13.30;;
66870;SDS011;53780;44.998;9.926;2023-10-08T10:00:24;22.38;;;13.30;;
66870;SDS011;53780;44.998;9.926;2023-10-08T10:03:36;24.38;;;12.45;;
66870;SDS011;53780;44.998;9.926;2023-10-08T10:06:41;23.42;;;12.77;;
66870;SDS011;53780;44.998;9.926;2023-10-08T10:09:46;19.42;;;12.27;;
66870;SDS011;53780;44.998;9.926;2023-10-08T10:12:56;21.67;;;12.37;;
66870;SDS011;53780;44.998;9.926;2023-10-08T10:16:04;18.88;;;11.93;;
66870;SDS011;53780;44.998;9.926;2023-10-08T10:19:16;18.38;;;12.20;;
66870;SDS011;53780;44.998;9.926;2023-10-08T10:22:27;17.63;;;11.93;;
66870;SDS011;53780;44.998;9.926;2023-10-08T10:25:35;18.15;;;10.95;;
66870;SDS011;53780;44.998;9.926;2023-10-08T10:28:40;17.10;;;10.60;;
66870;SDS011;53780;44.998;9.926;2023-10-08T10:31:45;16.83;;;10.60;;
66870;SDS011;53780;44.998;9.926;2023-10-08T10:34:49;16.10;;;9.23;;
66870;SDS011;53780;44.998;9.926;2023-10-08T10:37:55;20.13;;;9.77;;
66870;SDS011;53780;44.998;9.926;2023-10-08T10:41:07;18.35;;;10.30;;
66870;SDS011;53780;44.998;9.926;2023-10-08T10:44:12;16.17;;;9.73;;
66870;SDS011;53780;44.998;9.926;2023-10-08T10:47:17;19.77;;;10.35;;
66870;SDS011;53780;44.998;9.926;2023-10-08T10:50:21;17.67;;;9.73;;
66870;SDS011;53780;44.998;9.926;2023-10-08T10:53:35;17.58;;;9.82;;
66870;SDS011;53780;44.998;9.926;2023-10-08T10:57:00;19.10;;;9.77;;
66870;SDS011;53780;44.998;9.926;2023-10-08T11:00:08;15.53;;;8.70;;
66870;SDS011;53780;44.998;9.926;2023-10-08T11:03:39;14.35;;;8.77;;
66870;SDS011;53780;44.998;9.926;2023-10-08T11:06:46;15.02;;;8.50;;
66870;SDS011;53780;44.998;9.926;2023-10-08T11:09:55;15.43;;;9.13;;
66870;SDS011;53780;44.998;9.926;2023-10-08T11:12:59;15.07;;;9.07;;
66870;SDS011;53780;44.998;9.926;2023-10-08T11:16:05;14.60;;;9.07;;
66870;SDS011;53780;44.998;9.926;2023-10-08T11:19:11;14.10;;;8.93;;
66870;SDS011;53780;44.998;9.926;2023-10-08T11:22:19;14.65;;;9.05;;
66870;SDS011;53780;44.998;9.926;2023-10-08T11:25:26;16.10;;;8.70;;
66870;SDS011;53780;44.998;9.926;2023-10-08T11:28:38;15.38;;;8.48;;
66870;SDS011;53780;44.998;9.926;2023-10-08T11:31:46;15.00;;;8.27;;
66870;SDS011;53780;44.998;9.926;2023-10-08T11:34:54;13.85;;;8.60;;
66870;SDS011;53780;44.998;9.926;2023-10-08T11:38:05;15.95;;;8.75;;
66870;SDS011;53780;44.998;9.926;2023-10-08T11:41:16;17.05;;;8.80;;
66870;SDS011;53780;44.998;9.926;2023-10-08T11:44:27;13.73;;;8.90;;
66870;SDS011;53780;44.998;9.926;2023-10-08T11:47:33;25.60;;;8.17;;
66870;SDS011;53780;44.998;9.926;2023-10-08T11:50:39;13.90;;;7.72;;
66870;SDS011;53780;44.998;9.926;2023-10-08T11:53:44;14.23;;;8.50;;
66870;SDS011;53780;44.998;9.926;2023-10-08T11:56:48;15.93;;;7.90;;
66870;SDS011;53780;44.998;9.926;2023-10-08T11:59:51;12.80;;;7.88;;
66870;SDS011;53780;44.998;9.926;2023-10-08T12:02:57;13.43;;;7.27;;
66870;SDS011;53780;44.998;9.926;2023-10-08T12:06:01;14.32;;;8.07;;
66870;SDS011;53780;44.998;9.926;2023-10-08T12:09:08;14.65;;;7.50;;
66870;SDS011;53780;44.998;9.926;2023-10-08T12:12:16;15.18;;;7.50;;
66870;SDS011;53780;44.998;9.926;2023-10-08T12:15:25;13.25;;;6.95;;
66870;SDS011;53780;44.998;9.926;2023-10-08T12:18:41;15.03;;;8.07;;
66870;SDS011;53780;44.998;9.926;2023-10-08T12:21:47;12.77;;;7.90;;
66870;SDS011;53780;44.998;9.926;2023-10-08T12:24:51;15.60;;;7.43;;
66870;SDS011;53780;44.998;9.926;2023-10-08T12:27:56;13.57;;;7.57;;
66870;SDS011;53780;44.998;9.926;2023-10-08T12:31:00;13.90;;;7.20;;
66870;SDS011;53780;44.998;9.926;2023-10-08T12:34:04;13.50;;;7.50;;
66870;SDS011;53780;44.998;9.926;2023-10-08T12:37:07;17.48;;;8.00;;
66870;SDS011;53780;44.998;9.926;2023-10-08T12:40:11;13.43;;;7.13;;
66870;SDS011;53780;44.998;9.926;2023-10-08T12:43:16;16.38;;;7.63;;
66870;SDS011;53780;44.998;9.926;2023-10-08T12:46:22;15.90;;;7.45;;
66870;SDS011;53780;44.998;9.926;2023-10-08T12:49:29;14.07;;;7.67;;
66870;SDS011;53780;44.998;9.926;2023-10-08T12:52:37;14.77;;;8.07;;
66870;SDS011;53780;44.998;9.926;2023-10-08T12:55:47;15.77;;;7.85;;
66870;SDS011;53780;44.998;9.926;2023-10-08T12:58:57;14.00;;;7.72;;
66870;SDS011;53780;44.998;9.926;2023-10-08T13:02:01;16.65;;;7.30;;
66870;SDS011;53780;44.998;9.926;2023-10-08T13:05:11;16.30;;;7.40;;
66870;SDS011;53780;44.998;9.926;2023-10-08T13:08:19;13.07;;;6.80;;
66870;SDS011;53780;44.998;9.926;2023-10-08T13:11:24;13.93;;;6.10;;
66870;SDS011;53780;44.998;9.926;2023-10-08T13:14:29;16.17;;;6.00;;
66870;SDS011;53780;44.998;9.926;2023-10-08T13:17:33;13.60;;;6.10;;
66870;SDS011;53780;44.998;9.926;2023-10-08T13:20:37;14.37;;;5.33;;
66870;SDS011;53780;44.998;9.926;2023-10-08T13:23:44;15.57;;;5.50;;
66870;SDS011;53780;44.998;9.926;2023-10-08T13:26:47;16.02;;;5.53;;
66870;SDS011;53780;44.998;9.926;2023-10-08T13:29:51;12.32;;;5.60;;
66870;SDS011;53780;44.998;9.926;2023-10-08T13:32:54;12.02;;;5.93;;
66870;SDS011;53780;44.998;9.926;2023-10-08T13:35:58;14.87;;;5.63;;
66870;SDS011;53780;44.998;9.926;2023-10-08T13:39:02;13.02;;;5.60;;
66870;SDS011;53780;44.998;9.926;2023-10-08T13:42:07;12.00;;;5.43;;
66870;SDS011;53780;44.998;9.926;2023-10-08T13:45:10;14.30;;;5.63;;
66870;SDS011;53780;44.998;9.926;2023-10-08T13:48:30;14.75;;;5.68;;
66870;SDS011;53780;44.998;9.926;2023-10-08T13:51:36;13.93;;;5.27;;
66870;SDS011;53780;44.998;9.926;2023-10-08T13:54:42;12.80;;;5.38;;
66870;SDS011;53780;44.998;9.926;2023-10-08T13:57:53;13.00;;;4.97;;
66870;SDS011;53780;44.998;9.926;2023-10-08T14:00:58;12.02;;;5.15;;
66870;SDS011;53780;44.998;9.926;2023-10-08T14:04:05;13.38;;;5.00;;
66870;SDS011;53780;44.998;9.926;2023-10-08T14:07:10;11.63;;;5.00;;
66870;SDS011;53780;44.998;9.926;2023-10-08T14:10:20;12.90;;;4.60;;
66870;SDS011;53780;44.998;9.926;2023-10-08T14:13:33;12.63;;;4.05;;
66870;SDS011;53780;44.998;9.926;2023-10-08T14:16:40;11.73;;;4.20;;
66870;SDS011;53780;44.998;9.926;2023-10-08T14:19:50;14.95;;;4.40;;
66870;SDS011;53780;44.998;9.926;2023-10-08T14:23:03;11.07;;;4.63;;
66870;SDS011;53780;44.998;9.926;2023-10-08T14:26:08;11.35;;;4.47;;
66870;SDS011;53780;44.998;9.926;2023-10-08T14:29:13;13.45;;;4.47;;
66870;SDS011;53780;44.998;9.926;2023-10-08T14:32:20;10.93;;;4.10;;
66870;SDS011;53780;44.998;9.926;2023-10-08T14:35:24;12.45;;;4.38;;
66870;SDS011;53780;44.998;9.926;2023-10-08T14:38:47;11.60;;;4.23;;
66870;SDS011;53780;44.998;9.926;2023-10-08T14:42:09;10.10;;;4.30;;
66870;SDS011;53780;44.998;9.926;2023-10-08T14:45:32;10.85;;;4.40;;
66870;SDS011;53780;44.998;9.926;2023-10-08T14:48:38;11.75;;;4.30;;
66870;SDS011;53780;44.998;9.926;2023-10-08T14:51:44;9.50;;;4.15;;
66870;SDS011;53780;44.998;9.926;2023-10-08T14:54:52;11.07;;;3.87;;
66870;SDS011;53780;44.998;9.926;2023-10-08T14:57:56;11.27;;;4.68;;
66870;SDS011;53780;44.998;9.926;2023-10-08T15:01:00;11.80;;;4.38;;
66870;SDS011;53780;44.998;9.926;2023-10-08T15:04:04;13.02;;;4.50;;
66870;SDS011;53780;44.998;9.926;2023-10-08T15:07:08;11.00;;;4.70;;
66870;SDS011;53780;44.998;9.926;2023-10-08T15:10:14;12.33;;;4.60;;
66870;SDS011;53780;44.998;9.926;2023-10-08T15:13:18;11.98;;;4.53;;
66870;SDS011;53780;44.998;9.926;2023-10-08T15:16:23;13.95;;;4.00;;
66870;SDS011;53780;44.998;9.926;2023-10-08T15:19:29;11.00;;;4.13;;
66870;SDS011;53780;44.998;9.926;2023-10-08T15:22:32;9.50;;;3.92;;
66870;SDS011;53780;44.998;9.926;2023-10-08T15:25:36;11.13;;;4.33;;
66870;SDS011;53780;44.998;9.926;2023-10-08T15:28:40;9.90;;;4.65;;
66870;SDS011;53780;44.998;9.926;2023-10-08T15:31:44;10.68;;;4.32;;
66870;SDS011;53780;44.998;9.926;2023-10-08T15:34:48;12.30;;;4.47;;
66870;SDS011;53780;44.998;9.926;2023-10-08T15:37:52;11.43;;;4.20;;
66870;SDS011;53780;44.998;9.926;2023-10-08T15:40:56;12.90;;;4.77;;
66870;SDS011;53780;44.998;9.926;2023-10-08T15:44:02;11.98;;;4.38;;
66870;SDS011;53780;44.998;9.926;2023-10-08T15:47:07;11.55;;;4.70;;
66870;SDS011;53780;44.998;9.926;2023-10-08T15:50:11;10.85;;;4.25;;
66870;SDS011;53780;44.998;9.926;2023-10-08T15:53:14;12.93;;;4.80;;
66870;SDS011;53780;44.998;9.926;2023-10-08T15:56:18;12.07;;;4.40;;
66870;SDS011;53780;44.998;9.926;2023-10-08T15:59:22;11.00;;;4.50;;
66870;SDS011;53780;44.998;9.926;2023-10-08T16:02:26;10.95;;;4.57;;
66870;SDS011;53780;44.998;9.926;2023-10-08T16:05:29;12.70;;;4.50;;
66870;SDS011;53780;44.998;9.926;2023-10-08T16:08:33;9.30;;;4.00;;
66870;SDS011;53780;44.998;9.926;2023-10-08T16:11:37;9.10;;;4.33;;
66870;SDS011;53780;44.998;9.926;2023-10-08T16:14:41;9.60;;;4.18;;
66870;SDS011;53780;44.998;9.926;2023-10-08T16:17:45;9.80;;;4.53;;
66870;SDS011;53780;44.998;9.926;2023-10-08T16:20:49;13.27;;;4.20;;
66870;SDS011;53780;44.998;9.926;2023-10-08T16:23:55;13.70;;;4.60;;
66870;SDS011;53780;44.998;9.926;2023-10-08T16:27:01;13.50;;;4.23;;
66870;SDS011;53780;44.998;9.926;2023-10-08T16:30:05;18.15;;;5.72;;
66870;SDS011;53780;44.998;9.926;2023-10-08T16:33:14;13.90;;;4.47;;
66870;SDS011;53780;44.998;9.926;2023-10-08T16:36:18;22.33;;;7.95;;
66870;SDS011;53780;44.998;9.926;2023-10-08T16:39:23;14.95;;;4.90;;
66870;SDS011;53780;44.998;9.926;2023-10-08T16:42:29;16.60;;;4.10;;
66870;SDS011;53780;44.998;9.926;2023-10-08T16:45:33;14.70;;;4.30;;
66870;SDS011;53780;44.998;9.926;2023-10-08T16:48:39;12.18;;;4.28;;
66870;SDS011;53780;44.998;9.926;2023-10-08T16:51:47;15.32;;;4.53;;
66870;SDS011;53780;44.998;9.926;2023-10-08T16:54:51;18.63;;;4.90;;
66870;SDS011;53780;44.998;9.926;2023-10-08T16:57:58;14.40;;;4.13;;
66870;SDS011;53780;44.998;9.926;2023-10-08T17:01:04;15.30;;;4.60;;
66870;SDS011;53780;44.998;9.926;2023-10-08T17:04:13;15.18;;;4.35;;
66870;SDS011;53780;44.998;9.926;2023-10-08T17:07:17;11.75;;;4.00;;
66870;SDS011;53780;44.998;9.926;2023-10-08T17:10:20;18.58;;;5.47;;
66870;SDS011;53780;44.998;9.926;2023-10-08T17:13:24;11.70;;;4.07;;
66870;SDS011;53780;44.998;9.926;2023-10-08T17:16:28;16.23;;;4.32;;
66870;SDS011;53780;44.998;9.926;2023-10-08T17:19:32;11.43;;;4.40;;
66870;SDS011;53780;44.998;9.926;2023-10-08T17:22:36;14.80;;;4.68;;
66870;SDS011;53780;44.998;9.926;2023-10-08T17:25:40;14.32;;;4.60;;
66870;SDS011;53780;44.998;9.926;2023-10-08T17:28:46;16.47;;;5.17;;
66870;SDS011;53780;44.998;9.926;2023-10-08T17:31:51;15.05;;;4.90;;
66870;SDS011;53780;44.998;9.926;2023-10-08T17:34:57;11.38;;;4.63;;
66870;SDS011;53780;44.998;9.926;2023-10-08T17:38:01;15.05;;;4.63;;
66870;SDS011;53780;44.998;9.926;2023-10-08T17:41:05;13.45;;;5.65;;
66870;SDS011;53780;44.998;9.926;2023-10-08T17:44:09;16.03;;;5.13;;
66870;SDS011;53780;44.998;9.926;2023-10-08T17:47:13;13.63;;;5.38;;
66870;SDS011;53780;44.998;9.926;2023-10-08T17:50:17;15.00;;;4.78;;
66870;SDS011;53780;44.998;9.926;2023-10-08T17:53:21;25.98;;;5.65;;
66870;SDS011;53780;44.998;9.926;2023-10-08T17:56:25;13.95;;;4.78;;
66870;SDS011;53780;44.998;9.926;2023-10-08T17:59:29;15.77;;;5.40;;
66870;SDS011;53780;44.998;9.926;2023-10-08T18:02:33;14.40;;;5.13;;
66870;SDS011;53780;44.998;9.926;2023-10-08T18:05:38;16.75;;;5.57;;
66870;SDS011;53780;44.998;9.926;2023-10-08T18:08:42;14.27;;;5.18;;
66870;SDS011;53780;44.998;9.926;2023-10-08T18:11:53;18.73;;;5.95;;
66870;SDS011;53780;44.998;9.926;2023-10-08T18:14:59;14.50;;;4.77;;
66870;SDS011;53780;44.998;9.926;2023-10-08T18:18:04;17.27;;;5.57;;
66870;SDS011;53780;44.998;9.926;2023-10-08T18:21:12;18.48;;;5.50;;
66870;SDS011;53780;44.998;9.926;2023-10-08T18:24:20;19.17;;;7.78;;